Auke Bay, Alaska
Current Conditions -  °F | °C
As of 9:53 PM on Friday 24 Oct 2014 (Local Time) from PAJN Reporting Station
Broken Clouds Broken Clouds  
Wind Chill: 40°   Ceiling: 7000
Heat Index: 40°   Visibility: 10mi
Dew Point: 39°   Wind: 0mph
Humidity: 97%   Direction: NA
Pressure: 29.88"   Gusts: NA
Location:  58.38°N, 134.67°W
Report Text: PAJN 250553Z 00000KT 10SM SCT037 BKN070 04/04 A2988 RMK AO2 SLP118 60000 T00440039 10072 20044 55000
Loading
Personal Weather Stations






























Interactive Weather Map
Tropical Storm Tracking
New forecast layout! Learn more

10-Day Weather Forecast

Advertisements
Track Severe Weather on mobile